Time;durP1;ratioP1;P1;durP2;ratioP2;P2;SDS_P1;SDS_P2;PMS_P1;PMS_P2;Temp;Humidity;BMP_temperature;BMP_pressure;BME280_temperature;BME280_humidity;BME280_pressure;Samples;Min_cycle;Max_cycle;Signal;HPM_P1;HPM_P2
2023/01/15 00:02:15;;;;;;;;;;;;;;;13.53;nan;99700.28;5025442;28;19959;-36
2023/01/15 00:04:40;;;;;;;;;;;;;;;13.53;nan;99694.13;5024389;28;19948;-38
2023/01/15 00:07:06;;;;;;;;;;;;;;;13.65;nan;99701.75;5025888;28;19925;-37
2023/01/15 00:09:31;;;;;;;;;;;;;;;13.65;nan;99702.53;5021702;28;20366;-36
2023/01/15 00:11:56;;;;;;;;;;;;;;;13.65;nan;99707.13;5022974;28;19928;-36
2023/01/15 00:14:22;;;;;;;;;;;;;;;13.65;nan;99696.38;5024126;28;19967;-35
2023/01/15 00:16:51;;;;;;;;;;;;;;;13.67;nan;99692.28;5025609;28;19935;-36
2023/01/15 00:19:16;;;;;;;;;;;;;;;13.79;nan;99686.41;5027290;28;19928;-35
2023/01/15 00:21:42;;;;;;;;;;;;;;;13.78;nan;99684.81;5026969;28;19920;-35
2023/01/15 00:29:35;;;;;;;;;;;;;;;13.76;nan;99676.25;5025063;28;20406;-34
2023/01/15 00:32:02;;;;;;;;;;;;;;;13.88;nan;99668.50;5024936;28;19929;-35
2023/01/15 00:34:29;;;;;;;;;;;;;;;13.81;nan;99665.38;5024578;28;20311;-35
2023/01/15 00:36:55;;;;;;;;;;;;;;;13.84;nan;99664.81;5025937;28;19928;-35
2023/01/15 00:39:20;;;;;;;;;;;;;;;13.85;nan;99664.50;5027220;28;19922;-35
2023/01/15 00:41:46;;;;;;;;;;;;;;;13.88;nan;99657.72;5027496;28;19917;-35
2023/01/15 00:44:12;;;;;;;;;;;;;;;13.96;nan;99658.94;5025893;28;19967;-36
2023/01/15 00:46:37;;;;;;;;;;;;;;;14.00;nan;99663.44;5026624;28;20297;-35
2023/01/15 00:49:03;;;;;;;;;;;;;;;13.97;nan;99647.88;5028254;28;19921;-36
2023/01/15 00:51:28;;;;;;;;;;;;;;;14.01;nan;99651.59;5025512;28;19974;-37
2023/01/15 00:53:54;;;;;;;;;;;;;;;13.97;nan;99650.56;5029254;28;20008;-35
2023/01/15 00:56:19;;;;;;;;;;;;;;;14.05;nan;99652.59;5026634;28;19925;-37
2023/01/15 00:58:46;;;;;;;;;;;;;;;14.07;nan;99663.84;5029994;28;20111;-35
2023/01/15 01:01:12;;;;;;;;;;;;;;;14.11;nan;99659.47;5023251;28;20293;-38
2023/01/15 01:03:37;;;;;;;;;;;;;;;14.12;nan;99649.47;5021204;28;19921;-35
2023/01/15 01:06:03;;;;;;;;;;;;;;;14.14;nan;99650.78;5023328;28;19929;-35
2023/01/15 01:08:29;;;;;;;;;;;;;;;14.18;nan;99665.28;5029275;28;20102;-35
2023/01/15 01:11:05;;;;;;;;;;;;;;;14.23;nan;99650.91;5025541;28;19921;-36
2023/01/15 01:13:30;;;;;;;;;;;;;;;14.19;nan;99636.44;5022077;28;20055;-35
2023/01/15 01:15:55;;;;;;;;;;;;;;;14.25;nan;99664.88;5023419;28;20000;-37
2023/01/15 01:18:21;;;;;;;;;;;;;;;14.29;nan;99654.28;5025866;28;20075;-35
2023/01/15 01:20:46;;;;;;;;;;;;;;;14.29;nan;99651.59;5026080;28;20164;-38
2023/01/15 01:23:11;;;;;;;;;;;;;;;14.27;nan;99653.78;5028242;28;20341;-37
2023/01/15 01:25:37;;;;;;;;;;;;;;;14.32;nan;99646.41;5026435;28;20383;-35
2023/01/15 01:28:02;;;;;;;;;;;;;;;14.36;nan;99668.16;5024611;28;19927;-39
2023/01/15 01:30:27;;;;;;;;;;;;;;;14.37;nan;99638.25;5026604;28;19928;-35
2023/01/15 01:32:53;;;;;;;;;;;;;;;14.39;nan;99641.44;5025070;28;19921;-35
2023/01/15 01:35:18;;;;;;;;;;;;;;;14.41;nan;99620.38;5025725;28;19925;-35
2023/01/15 01:37:47;;;;;;;;;;;;;;;14.49;nan;99619.69;5023400;28;19921;-36
2023/01/15 01:40:13;;;;;;;;;;;;;;;14.42;nan;99615.78;5023428;28;19917;-37
2023/01/15 01:42:38;;;;;;;;;;;;;;;14.43;nan;99614.66;5022000;28;19921;-37
2023/01/15 01:45:08;;;;;;;;;;;;;;;14.51;nan;99643.63;5022243;28;19935;-36
2023/01/15 01:47:34;;;;;;;;;;;;;;;14.52;nan;99629.06;5022298;28;19921;-36
2023/01/15 01:50:03;;;;;;;;;;;;;;;14.56;nan;99621.97;5022163;28;20019;-36
2023/01/15 01:52:31;;;;;;;;;;;;;;;14.58;nan;99638.66;5020875;28;20426;-35
2023/01/15 01:54:57;;;;;;;;;;;;;;;14.55;nan;99636.56;5023114;28;19935;-35
2023/01/15 01:57:23;;;;;;;;;;;;;;;14.56;nan;99640.84;5019242;28;19925;-35
2023/01/15 01:59:48;;;;;;;;;;;;;;;14.54;nan;99637.63;5024712;28;19928;-36
2023/01/15 02:02:15;;;;;;;;;;;;;;;14.59;nan;99634.84;5038647;22;20465;-35
2023/01/15 02:04:40;;;;;;;;;;;;;;;14.64;nan;99629.34;5024292;28;20006;-35
2023/01/15 02:07:06;;;;;;;;;;;;;;;14.62;nan;99615.38;5025235;28;20151;-36
2023/01/15 02:09:31;;;;;;;;;;;;;;;14.58;nan;99598.22;5024162;28;19921;-35
2023/01/15 02:12:00;;;;;;;;;;;;;;;14.60;nan;99587.13;5025292;28;19932;-34
2023/01/15 02:14:37;;;;;;;;;;;;;;;14.65;nan;99589.72;5020339;28;21434;-35
2023/01/15 02:17:15;;;;;;;;;;;;;;;14.70;nan;99595.78;5023200;28;19921;-36
2023/01/15 02:19:46;;;;;;;;;;;;;;;14.72;nan;99614.34;5022052;28;19925;-35
2023/01/15 02:22:14;;;;;;;;;;;;;;;14.69;nan;99612.25;5018673;28;20288;-35
2023/01/15 02:24:43;;;;;;;;;;;;;;;14.75;nan;99611.88;5021022;28;19929;-35
2023/01/15 02:27:21;;;;;;;;;;;;;;;14.67;nan;99614.47;5022238;28;19932;-34
2023/01/15 02:29:47;;;;;;;;;;;;;;;14.68;nan;99630.34;5021148;28;20329;-35
2023/01/15 02:32:16;;;;;;;;;;;;;;;14.65;nan;99627.44;5027143;28;19928;-35
2023/01/15 02:34:51;;;;;;;;;;;;;;;14.68;nan;99616.84;5021855;28;20004;-35
2023/01/15 02:37:19;;;;;;;;;;;;;;;14.78;nan;99621.25;5020227;28;20439;-35
2023/01/15 02:39:46;;;;;;;;;;;;;;;14.80;nan;99614.44;5021054;28;19943;-36
2023/01/15 02:42:13;;;;;;;;;;;;;;;14.82;nan;99609.53;5025684;28;19917;-35
2023/01/15 02:44:42;;;;;;;;;;;;;;;14.87;nan;99613.22;5021125;28;19925;-34
2023/01/15 02:47:08;;;;;;;;;;;;;;;14.85;nan;99604.63;5018941;28;19921;-35
2023/01/15 02:49:35;;;;;;;;;;;;;;;14.84;nan;99603.84;5024962;28;19932;-35
2023/01/15 02:52:05;;;;;;;;;;;;;;;14.88;nan;99602.13;5024335;28;19925;-35
2023/01/15 02:54:33;;;;;;;;;;;;;;;14.86;nan;99601.63;5023692;28;20353;-35
2023/01/15 02:57:00;;;;;;;;;;;;;;;14.85;nan;99599.25;5020526;28;19925;-35
2023/01/15 02:59:29;;;;;;;;;;;;;;;14.78;nan;99591.59;5018976;28;19929;-35
2023/01/15 03:02:03;;;;;;;;;;;;;;;14.80;nan;99598.25;5021801;28;19921;-35
2023/01/15 03:04:48;;;;;;;;;;;;;;;14.76;nan;99597.28;5025321;28;20253;-35
2023/01/15 03:07:13;;;;;;;;;;;;;;;14.80;nan;99609.06;5021797;28;20000;-35
2023/01/15 03:09:39;;;;;;;;;;;;;;;14.82;nan;99601.44;5024379;28;20181;-35
2023/01/15 03:12:04;;;;;;;;;;;;;;;14.81;nan;99601.75;5026097;28;19927;-35
2023/01/15 03:14:37;;;;;;;;;;;;;;;14.79;nan;99598.56;5031443;28;19932;-35
2023/01/15 03:17:18;;;;;;;;;;;;;;;14.78;nan;99600.47;5026150;28;19921;-35
2023/01/15 03:19:49;;;;;;;;;;;;;;;14.74;nan;99602.19;5028469;28;20278;-35
2023/01/15 03:22:14;;;;;;;;;;;;;;;14.73;nan;99597.91;5025206;28;19978;-35
2023/01/15 03:24:40;;;;;;;;;;;;;;;14.80;nan;99600.97;5027231;28;19933;-35
2023/01/15 03:27:05;;;;;;;;;;;;;;;14.82;nan;99595.25;5027837;28;19923;-36
2023/01/15 03:29:37;;;;;;;;;;;;;;;14.79;nan;99593.97;5021808;28;19932;-35
2023/01/15 03:32:03;;;;;;;;;;;;;;;14.87;nan;99602.44;5024898;28;19943;-34
2023/01/15 03:34:45;;;;;;;;;;;;;;;14.75;nan;99576.00;5022784;28;20386;-34
2023/01/15 03:37:11;;;;;;;;;;;;;;;14.72;nan;99585.50;5024231;28;20208;-35
2023/01/15 03:39:37;;;;;;;;;;;;;;;14.63;nan;99587.31;5024050;28;19921;-35
2023/01/15 03:42:13;;;;;;;;;;;;;;;14.59;nan;99586.34;5027595;28;19928;-35
2023/01/15 03:44:45;;;;;;;;;;;;;;;14.58;nan;99582.03;5027940;28;19922;-35
2023/01/15 03:47:29;;;;;;;;;;;;;;;14.62;nan;99574.16;5024782;28;19921;-34
2023/01/15 03:50:24;;;;;;;;;;;;;;;14.56;nan;99572.66;5022723;28;20077;-35
2023/01/15 03:52:55;;;;;;;;;;;;;;;14.57;nan;99588.53;5015281;28;19961;-34
2023/01/15 03:55:26;;;;;;;;;;;;;;;14.60;nan;99598.72;5026193;28;19920;-36
2023/01/15 03:57:51;;;;;;;;;;;;;;;14.62;nan;99587.63;5027292;28;19917;-35
2023/01/15 04:00:17;;;;;;;;;;;;;;;14.66;nan;99577.81;5024621;28;20451;-34
2023/01/15 04:02:44;;;;;;;;;;;;;;;14.62;nan;99577.63;5026971;28;20004;-34
2023/01/15 04:05:10;;;;;;;;;;;;;;;14.56;nan;99586.16;5024505;28;20455;-35
2023/01/15 04:07:35;;;;;;;;;;;;;;;14.65;nan;99587.81;5026693;28;19975;-35
2023/01/15 04:10:00;;;;;;;;;;;;;;;14.63;nan;99598.09;5023547;28;20563;-35
2023/01/15 04:12:26;;;;;;;;;;;;;;;14.60;nan;99598.72;5027557;28;20449;-34
2023/01/15 04:14:52;;;;;;;;;;;;;;;14.62;nan;99601.91;5028652;28;19921;-35
2023/01/15 04:17:17;;;;;;;;;;;;;;;14.63;nan;99616.97;5028218;28;20296;-36
2023/01/15 04:19:43;;;;;;;;;;;;;;;14.57;nan;99663.22;5028990;28;19976;-35
2023/01/15 04:22:09;;;;;;;;;;;;;;;14.62;nan;99655.00;5028914;28;20056;-34
2023/01/15 04:24:34;;;;;;;;;;;;;;;14.63;nan;99660.09;5022342;28;20020;-34
2023/01/15 04:27:00;;;;;;;;;;;;;;;14.72;nan;99652.09;5022922;28;20020;-35
2023/01/15 04:29:25;;;;;;;;;;;;;;;14.77;nan;99647.41;5023925;28;20007;-34
2023/01/15 04:31:56;;;;;;;;;;;;;;;14.84;nan;99646.19;5026873;28;19921;-35
2023/01/15 04:34:21;;;;;;;;;;;;;;;14.87;nan;99656.38;5025041;28;19917;-35
2023/01/15 04:36:46;;;;;;;;;;;;;;;14.82;nan;99651.88;5028318;28;19960;-35
2023/01/15 04:39:12;;;;;;;;;;;;;;;14.87;nan;99664.47;5025786;28;19982;-36
2023/01/15 04:44:26;;;;;;;;;;;;;;;14.87;nan;99667.16;5025034;28;19992;-34
2023/01/15 04:46:52;;;;;;;;;;;;;;;14.88;nan;99671.44;5023667;28;19917;-35
2023/01/15 04:49:17;;;;;;;;;;;;;;;14.86;nan;99681.75;5024188;28;19928;-35
2023/01/15 04:51:43;;;;;;;;;;;;;;;14.85;nan;99686.34;5024829;28;20302;-35
2023/01/15 04:54:09;;;;;;;;;;;;;;;14.81;nan;99696.13;5025264;28;19925;-36
2023/01/15 04:56:39;;;;;;;;;;;;;;;14.76;nan;99690.84;5026223;28;19999;-35
2023/01/15 04:59:04;;;;;;;;;;;;;;;14.67;nan;99698.84;5022300;28;19921;-37
2023/01/15 05:01:29;;;;;;;;;;;;;;;14.61;nan;99699.25;5026180;28;19921;-35
2023/01/15 05:03:57;;;;;;;;;;;;;;;14.61;nan;99708.13;5022360;28;20336;-35
2023/01/15 05:06:22;;;;;;;;;;;;;;;14.61;nan;99707.34;5024483;28;19925;-35
2023/01/15 05:08:47;;;;;;;;;;;;;;;14.54;nan;99707.72;5024966;28;19975;-36
2023/01/15 05:11:13;;;;;;;;;;;;;;;14.38;nan;99709.09;5025167;28;20087;-35
2023/01/15 05:13:38;;;;;;;;;;;;;;;14.29;nan;99705.47;5021901;28;19925;-34
2023/01/15 05:16:11;;;;;;;;;;;;;;;14.25;nan;99712.56;5024783;28;19921;-35
2023/01/15 05:18:37;;;;;;;;;;;;;;;14.12;nan;99706.84;5024295;28;20959;-35
2023/01/15 05:21:03;;;;;;;;;;;;;;;14.08;nan;99705.84;5022331;28;19921;-36
2023/01/15 05:23:28;;;;;;;;;;;;;;;14.02;nan;99717.81;5023344;28;19985;-35
2023/01/15 05:25:53;;;;;;;;;;;;;;;13.98;nan;99724.06;5024573;28;20398;-36
2023/01/15 05:28:19;;;;;;;;;;;;;;;13.98;nan;99722.16;5021828;28;19965;-35
2023/01/15 05:30:44;;;;;;;;;;;;;;;13.87;nan;99729.63;5026269;28;20327;-35
2023/01/15 05:33:09;;;;;;;;;;;;;;;13.90;nan;99725.56;5021585;28;19920;-35
2023/01/15 05:35:35;;;;;;;;;;;;;;;13.84;nan;99716.78;5025080;28;20598;-34
2023/01/15 05:38:02;;;;;;;;;;;;;;;13.86;nan;99727.25;5023009;28;19970;-35
2023/01/15 05:40:28;;;;;;;;;;;;;;;13.87;nan;99726.16;5026655;28;19920;-35
2023/01/15 05:42:53;;;;;;;;;;;;;;;13.85;nan;99728.34;5023888;28;20391;-34
2023/01/15 05:45:18;;;;;;;;;;;;;;;13.81;nan;99725.41;5025300;28;20001;-35
2023/01/15 05:47:44;;;;;;;;;;;;;;;13.86;nan;99724.56;5023573;28;20328;-35
2023/01/15 05:50:09;;;;;;;;;;;;;;;13.86;nan;99732.63;5024628;28;20349;-35
2023/01/15 05:52:35;;;;;;;;;;;;;;;13.79;nan;99724.91;5023444;28;19918;-35
2023/01/15 05:55:00;;;;;;;;;;;;;;;13.77;nan;99732.47;5026165;28;19927;-35
2023/01/15 05:57:25;;;;;;;;;;;;;;;13.73;nan;99744.94;5025902;28;20003;-35
2023/01/15 05:59:52;;;;;;;;;;;;;;;13.73;nan;99731.47;5021374;28;20003;-35
2023/01/15 06:02:17;;;;;;;;;;;;;;;13.78;nan;99752.13;5022629;28;19926;-35
2023/01/15 06:04:42;;;;;;;;;;;;;;;13.71;nan;99741.75;5024266;28;19931;-36
2023/01/15 06:07:08;;;;;;;;;;;;;;;13.71;nan;99716.72;5022361;28;19986;-35
2023/01/15 06:09:33;;;;;;;;;;;;;;;13.70;nan;99715.13;5021835;28;19924;-35
2023/01/15 06:11:58;;;;;;;;;;;;;;;13.64;nan;99733.22;5024441;28;20417;-34
2023/01/15 06:14:24;;;;;;;;;;;;;;;13.68;nan;99741.53;5025749;28;20055;-35
2023/01/15 06:16:49;;;;;;;;;;;;;;;13.71;nan;99727.47;5022362;28;19921;-35
2023/01/15 06:19:15;;;;;;;;;;;;;;;13.69;nan;99748.50;5023921;28;19921;-34
2023/01/15 06:21:40;;;;;;;;;;;;;;;13.67;nan;99745.31;5018412;28;19925;-35
2023/01/15 06:24:06;;;;;;;;;;;;;;;13.64;nan;99737.81;5021696;28;19929;-36
2023/01/15 06:26:32;;;;;;;;;;;;;;;13.58;nan;99748.66;5022084;28;19927;-34
2023/01/15 06:28:57;;;;;;;;;;;;;;;13.56;nan;99756.22;5017579;28;19925;-35
2023/01/15 06:31:25;;;;;;;;;;;;;;;13.53;nan;99754.13;5015734;28;20107;-35
2023/01/15 06:33:51;;;;;;;;;;;;;;;13.57;nan;99744.38;5018262;28;19921;-36
2023/01/15 06:36:17;;;;;;;;;;;;;;;13.50;nan;99743.94;5016571;28;20348;-35
2023/01/15 06:38:43;;;;;;;;;;;;;;;13.50;nan;99751.22;5019297;28;20007;-34
2023/01/15 06:49:26;;;;;;;;;;;;;;;13.25;nan;99747.78;5029986;28;19944;-34
2023/01/15 06:51:51;;;;;;;;;;;;;;;13.23;nan;99759.91;5025914;28;20303;-34
2023/01/15 06:54:16;;;;;;;;;;;;;;;13.22;nan;99763.69;5025084;28;19925;-35
2023/01/15 06:56:41;;;;;;;;;;;;;;;13.25;nan;99763.91;5030135;28;19920;-35
2023/01/15 06:59:07;;;;;;;;;;;;;;;13.20;nan;99777.44;5026488;28;19978;-35
2023/01/15 07:01:32;;;;;;;;;;;;;;;13.14;nan;99777.78;5023439;28;19921;-34
2023/01/15 07:03:57;;;;;;;;;;;;;;;13.16;nan;99779.06;5024808;28;19921;-35
2023/01/15 07:06:23;;;;;;;;;;;;;;;13.16;nan;99775.59;5026117;28;19922;-36
2023/01/15 07:08:48;;;;;;;;;;;;;;;13.16;nan;99765.63;5025995;28;20039;-34
2023/01/15 07:11:14;;;;;;;;;;;;;;;13.15;nan;99755.97;5027978;28;19925;-35
2023/01/15 07:13:39;;;;;;;;;;;;;;;13.08;nan;99735.88;5027182;28;19917;-35
2023/01/15 07:16:04;;;;;;;;;;;;;;;13.04;nan;99751.78;5029941;28;20511;-34
2023/01/15 07:18:31;;;;;;;;;;;;;;;12.94;nan;99747.34;5028133;28;20367;-34
2023/01/15 07:20:57;;;;;;;;;;;;;;;12.93;nan;99745.75;5027299;28;20019;-36
2023/01/15 07:23:23;;;;;;;;;;;;;;;12.87;nan;99746.09;5024640;28;20027;-35
2023/01/15 07:25:50;;;;;;;;;;;;;;;12.86;nan;99752.56;5030556;28;19971;-34
2023/01/15 07:28:16;;;;;;;;;;;;;;;12.85;nan;99754.44;5029333;28;19972;-34
2023/01/15 07:30:41;;;;;;;;;;;;;;;12.88;nan;99753.84;5030238;28;19932;-35
2023/01/15 07:33:06;;;;;;;;;;;;;;;12.84;nan;99755.53;5026658;28;19925;-36
2023/01/15 07:35:34;;;;;;;;;;;;;;;12.83;nan;99751.25;5028489;28;20324;-34
2023/01/15 07:38:00;;;;;;;;;;;;;;;12.81;nan;99756.09;5029191;28;19921;-34
2023/01/15 07:40:25;;;;;;;;;;;;;;;12.82;nan;99773.03;5027143;28;19990;-34
2023/01/15 07:49:44;;;;;;;;;;;;;;;12.71;nan;99767.75;5024732;28;19956;-34
2023/01/15 07:51:14;;;;;;;;;;;;;;;12.66;nan;99772.41;5025680;28;19975;-35
2023/01/15 07:53:40;;;;;;;;;;;;;;;12.64;nan;99769.19;5024811;28;21565;-34
2023/01/15 07:56:05;;;;;;;;;;;;;;;12.59;nan;99766.56;5025537;28;19924;-34
2023/01/15 07:58:31;;;;;;;;;;;;;;;12.55;nan;99757.47;5026305;28;19921;-35
2023/01/15 08:00:56;;;;;;;;;;;;;;;12.51;nan;99754.53;5034344;22;20322;-35
2023/01/15 08:03:21;;;;;;;;;;;;;;;12.48;nan;99768.56;5022553;28;19932;-35
2023/01/15 08:05:47;;;;;;;;;;;;;;;12.49;nan;99775.53;5027110;28;19967;-35
2023/01/15 08:08:16;;;;;;;;;;;;;;;12.51;nan;99789.47;5023539;28;20416;-34
2023/01/15 08:16:10;;;;;;;;;;;;;;;12.25;nan;99783.56;5009459;28;20189;-34
2023/01/15 08:18:35;;;;;;;;;;;;;;;12.21;nan;99781.69;5010353;28;19927;-35
2023/01/15 08:21:01;;;;;;;;;;;;;;;12.21;nan;99795.13;5009395;28;19925;-34
2023/01/15 08:23:26;;;;;;;;;;;;;;;12.20;nan;99796.19;5009787;28;19925;-34
2023/01/15 08:25:51;;;;;;;;;;;;;;;12.15;nan;99775.56;5007243;28;19980;-35
2023/01/15 08:28:17;;;;;;;;;;;;;;;12.10;nan;99791.72;5009222;28;19921;-35
2023/01/15 08:30:42;;;;;;;;;;;;;;;12.09;nan;99798.97;5009224;28;20359;-36
2023/01/15 08:33:07;;;;;;;;;;;;;;;12.13;nan;99793.84;5005257;28;19961;-35
2023/01/15 08:35:33;;;;;;;;;;;;;;;12.09;nan;99796.31;5008294;28;19917;-35
2023/01/15 08:38:02;;;;;;;;;;;;;;;11.97;nan;99793.16;5008377;28;19921;-35
2023/01/15 08:40:27;;;;;;;;;;;;;;;11.94;nan;99783.00;5007897;28;19926;-35
2023/01/15 08:42:53;;;;;;;;;;;;;;;11.86;nan;99777.44;5011282;28;19932;-35
2023/01/15 08:45:18;;;;;;;;;;;;;;;11.88;nan;99775.28;5005980;28;19930;-35
2023/01/15 08:47:43;;;;;;;;;;;;;;;11.91;nan;99777.38;5006562;28;19921;-35
2023/01/15 08:50:09;;;;;;;;;;;;;;;11.95;nan;99775.75;5007779;28;20036;-34
2023/01/15 08:52:36;;;;;;;;;;;;;;;11.98;nan;99780.53;5006744;28;19929;-35
2023/01/15 08:55:02;;;;;;;;;;;;;;;12.01;nan;99788.84;5007482;28;19936;-34
2023/01/15 08:57:27;;;;;;;;;;;;;;;12.02;nan;99784.25;5009543;28;19926;-35
2023/01/15 08:59:52;;;;;;;;;;;;;;;12.01;nan;99791.50;5005937;28;19918;-35
2023/01/15 09:02:18;;;;;;;;;;;;;;;12.00;nan;99799.84;5002250;28;20388;-35
2023/01/15 09:04:43;;;;;;;;;;;;;;;12.01;nan;99799.56;5009879;28;20490;-35
2023/01/15 09:07:09;;;;;;;;;;;;;;;12.07;nan;99808.41;5010540;28;19917;-36
2023/01/15 09:09:34;;;;;;;;;;;;;;;12.03;nan;99799.31;5007080;28;20402;-35
2023/01/15 09:12:00;;;;;;;;;;;;;;;11.97;nan;99797.72;4988456;28;20398;-35
2023/01/15 09:14:25;;;;;;;;;;;;;;;12.01;nan;99798.78;4985143;28;20318;-35
2023/01/15 09:16:50;;;;;;;;;;;;;;;12.05;nan;99807.88;4988265;28;20100;-35
2023/01/15 09:19:16;;;;;;;;;;;;;;;12.06;nan;99812.19;5003199;28;20500;-35
2023/01/15 09:21:42;;;;;;;;;;;;;;;12.02;nan;99821.84;5008217;28;19918;-35
2023/01/15 09:24:08;;;;;;;;;;;;;;;12.06;nan;99815.66;5007018;28;19922;-35
2023/01/15 09:26:35;;;;;;;;;;;;;;;12.00;nan;99818.66;5007303;28;19928;-35
2023/01/15 09:29:01;;;;;;;;;;;;;;;12.06;nan;99796.06;5004054;28;19929;-35
2023/01/15 09:31:27;;;;;;;;;;;;;;;12.03;nan;99818.91;5009280;28;19987;-35
2023/01/15 09:33:52;;;;;;;;;;;;;;;12.09;nan;99828.53;5007896;28;20004;-35
2023/01/15 09:36:21;;;;;;;;;;;;;;;12.09;nan;99814.28;5010446;28;20004;-35
2023/01/15 09:38:47;;;;;;;;;;;;;;;12.10;nan;99818.59;5011186;28;19964;-35
2023/01/15 09:44:05;;;;;;;;;;;;;;;12.02;nan;99822.66;5008061;28;19940;-35
2023/01/15 09:46:31;;;;;;;;;;;;;;;12.04;nan;99828.56;5004123;28;19971;-35
2023/01/15 09:49:03;;;;;;;;;;;;;;;12.03;nan;99826.97;5003047;28;20149;-36
2023/01/15 09:51:42;;;;;;;;;;;;;;;12.06;nan;99806.81;5013280;28;20362;-34
2023/01/15 09:54:16;;;;;;;;;;;;;;;12.08;nan;99815.38;5009972;28;19917;-34
2023/01/15 09:56:41;;;;;;;;;;;;;;;12.08;nan;99804.63;5005408;28;20340;-35
2023/01/15 09:59:18;;;;;;;;;;;;;;;12.07;nan;99801.16;5004402;28;19921;-34
2023/01/15 10:01:43;;;;;;;;;;;;;;;12.19;nan;99802.66;5003326;28;20345;-35
2023/01/15 10:04:16;;;;;;;;;;;;;;;12.19;nan;99814.19;4999590;28;19925;-36
2023/01/15 10:06:48;;;;;;;;;;;;;;;12.25;nan;99823.03;5004528;28;19921;-34
2023/01/15 10:09:21;;;;;;;;;;;;;;;12.26;nan;99820.06;5003556;28;19925;-34
2023/01/15 10:14:38;;;;;;;;;;;;;;;12.32;nan;99824.31;5003415;28;20271;-35
2023/01/15 10:17:23;;;;;;;;;;;;;;;12.34;nan;99824.03;5005339;28;20413;-34
2023/01/15 10:19:50;;;;;;;;;;;;;;;12.43;nan;99821.53;5004478;28;19952;-35
2023/01/15 10:22:30;;;;;;;;;;;;;;;12.49;nan;99828.47;4999303;28;20085;-35
2023/01/15 10:24:56;;;;;;;;;;;;;;;12.57;nan;99830.56;5003397;28;19971;-35
2023/01/15 10:27:23;;;;;;;;;;;;;;;12.64;nan;99828.31;5003395;28;19921;-35
2023/01/15 10:29:51;;;;;;;;;;;;;;;12.71;nan;99824.19;5004110;28;19918;-34
2023/01/15 10:32:25;;;;;;;;;;;;;;;12.77;nan;99816.91;5002316;28;19925;-35
2023/01/15 10:35:10;;;;;;;;;;;;;;;12.79;nan;99814.72;5006842;28;19917;-34
2023/01/15 10:37:40;;;;;;;;;;;;;;;12.79;nan;99819.31;5007100;28;19925;-35
2023/01/15 10:40:24;;;;;;;;;;;;;;;12.86;nan;99817.06;5009153;28;19920;-34
2023/01/15 10:43:02;;;;;;;;;;;;;;;12.89;nan;99811.91;5009583;28;19928;-34
2023/01/15 10:45:30;;;;;;;;;;;;;;;12.85;nan;99813.59;5007580;28;19929;-34
2023/01/15 10:48:14;;;;;;;;;;;;;;;12.88;nan;99813.00;5005125;28;20401;-34
2023/01/15 10:50:40;;;;;;;;;;;;;;;12.89;nan;99811.91;5009154;28;19924;-35
2023/01/15 10:53:11;;;;;;;;;;;;;;;12.96;nan;99812.41;5009446;28;19921;-35
2023/01/15 10:55:40;;;;;;;;;;;;;;;13.01;nan;99801.56;5008513;28;19929;-34
2023/01/15 10:58:20;;;;;;;;;;;;;;;13.11;nan;99818.69;5005723;28;19929;-35
2023/01/15 11:00:50;;;;;;;;;;;;;;;13.18;nan;99811.09;5007106;28;19925;-34
2023/01/15 11:03:18;;;;;;;;;;;;;;;13.28;nan;99805.56;5005960;28;20421;-34
2023/01/15 11:05:45;;;;;;;;;;;;;;;13.36;nan;99815.69;5007764;28;20206;-34
2023/01/15 11:08:30;;;;;;;;;;;;;;;13.37;nan;99813.81;5006377;28;19928;-34
2023/01/15 11:11:06;;;;;;;;;;;;;;;13.30;nan;99809.59;5008058;28;20008;-35
2023/01/15 11:19:36;;;;;;;;;;;;;;;13.33;nan;99802.84;5001283;28;20004;-35
2023/01/15 11:22:19;;;;;;;;;;;;;;;13.28;nan;99802.88;5008477;28;19925;-34
2023/01/15 11:24:53;;;;;;;;;;;;;;;13.32;nan;99806.63;5007483;28;20024;-34
2023/01/15 11:27:26;;;;;;;;;;;;;;;13.35;nan;99822.19;5006281;28;20451;-34
2023/01/15 11:30:01;;;;;;;;;;;;;;;13.33;nan;99812.78;5007842;28;19925;-35
2023/01/15 11:32:27;;;;;;;;;;;;;;;13.41;nan;99810.25;5003087;28;19928;-35
2023/01/15 11:34:56;;;;;;;;;;;;;;;13.39;nan;99812.44;5011466;28;19921;-35
2023/01/15 11:37:22;;;;;;;;;;;;;;;13.44;nan;99820.44;5009504;28;19917;-35
2023/01/15 11:39:51;;;;;;;;;;;;;;;13.43;nan;99821.53;5011209;28;20088;-35
2023/01/15 11:50:48;;;;;;;;;;;;;;;13.54;nan;99814.91;5010468;28;20389;-34
2023/01/15 11:53:18;;;;;;;;;;;;;;;13.48;nan;99818.78;5011073;28;20197;-34
2023/01/15 11:55:51;;;;;;;;;;;;;;;13.46;nan;99812.88;5010798;28;19921;-34
2023/01/15 11:58:16;;;;;;;;;;;;;;;13.47;nan;99817.19;5010522;28;19938;-35
2023/01/15 12:00:45;;;;;;;;;;;;;;;13.52;nan;99822.50;5011974;28;20020;-35
2023/01/15 12:03:13;;;;;;;;;;;;;;;13.49;nan;99817.69;5012374;28;19928;-35
2023/01/15 12:05:44;;;;;;;;;;;;;;;13.53;nan;99804.44;5008919;28;20068;-34
2023/01/15 12:08:17;;;;;;;;;;;;;;;13.55;nan;99804.97;5010410;28;19924;-34
2023/01/15 12:11:03;;;;;;;;;;;;;;;13.61;nan;99804.59;5011509;28;19921;-35
2023/01/15 12:13:34;;;;;;;;;;;;;;;13.59;nan;99804.06;5007323;28;20267;-34
2023/01/15 12:16:08;;;;;;;;;;;;;;;13.64;nan;99797.00;5006751;28;19964;-35
2023/01/15 12:18:42;;;;;;;;;;;;;;;13.54;nan;99787.22;5006981;28;19952;-35
2023/01/15 12:21:31;;;;;;;;;;;;;;;13.53;nan;99802.56;5009363;28;19921;-35
2023/01/15 12:24:15;;;;;;;;;;;;;;;13.61;nan;99806.47;4989704;28;20451;-35
2023/01/15 12:27:00;;;;;;;;;;;;;;;13.55;nan;99811.13;5008055;28;19921;-36
2023/01/15 12:29:34;;;;;;;;;;;;;;;13.55;nan;99796.88;4999404;28;19921;-35
2023/01/15 12:32:06;;;;;;;;;;;;;;;13.52;nan;99800.16;5011404;28;19944;-34
2023/01/15 12:34:41;;;;;;;;;;;;;;;13.54;nan;99804.16;5007434;28;19921;-35
2023/01/15 12:37:15;;;;;;;;;;;;;;;13.51;nan;99802.06;5008710;28;19921;-35
2023/01/15 12:39:48;;;;;;;;;;;;;;;13.58;nan;99804.38;5010567;28;19953;-35
2023/01/15 12:45:16;;;;;;;;;;;;;;;13.53;nan;99807.94;5006777;28;20298;-34
2023/01/15 12:48:04;;;;;;;;;;;;;;;13.41;nan;99796.00;5001780;28;20489;-35
2023/01/15 12:50:43;;;;;;;;;;;;;;;13.53;nan;99801.75;5005275;28;19917;-35
2023/01/15 12:53:19;;;;;;;;;;;;;;;13.52;nan;99792.88;5003267;28;20611;-34
2023/01/15 12:55:53;;;;;;;;;;;;;;;13.49;nan;99781.91;5002937;28;20100;-35
2023/01/15 12:58:38;;;;;;;;;;;;;;;13.51;nan;99788.59;5005843;28;20040;-35
2023/01/15 13:01:10;;;;;;;;;;;;;;;13.57;nan;99800.88;5005279;28;19921;-33
2023/01/15 13:03:46;;;;;;;;;;;;;;;13.68;nan;99803.44;5002859;28;19921;-36
2023/01/15 13:06:13;;;;;;;;;;;;;;;13.71;nan;99800.16;5004777;28;19921;-35
2023/01/15 13:08:50;;;;;;;;;;;;;;;13.86;nan;99797.25;5009637;28;20027;-34
2023/01/15 13:11:16;;;;;;;;;;;;;;;14.26;nan;99793.09;5006522;28;19928;-35
2023/01/15 13:13:42;;;;;;;;;;;;;;;14.42;nan;99805.22;5005046;28;19921;-34
2023/01/15 13:16:25;;;;;;;;;;;;;;;14.50;nan;99792.97;5007058;28;20138;-35
2023/01/15 13:18:54;;;;;;;;;;;;;;;14.43;nan;99800.63;5005615;28;20043;-35
2023/01/15 13:21:20;;;;;;;;;;;;;;;14.18;nan;99799.97;5005793;28;19921;-36
2023/01/15 13:23:48;;;;;;;;;;;;;;;14.03;nan;99820.97;5007946;28;19929;-35
2023/01/15 13:26:26;;;;;;;;;;;;;;;13.80;nan;99807.28;5006217;28;19926;-35
2023/01/15 13:29:10;;;;;;;;;;;;;;;13.78;nan;99809.47;5000110;28;19925;-35
2023/01/15 13:31:45;;;;;;;;;;;;;;;13.67;nan;99802.66;4997338;28;19925;-35
2023/01/15 13:34:22;;;;;;;;;;;;;;;13.72;nan;99799.06;4998206;28;19925;-35
2023/01/15 13:36:49;;;;;;;;;;;;;;;13.78;nan;99798.69;4995590;28;19925;-35
2023/01/15 13:39:36;;;;;;;;;;;;;;;14.01;nan;99802.41;4998159;28;19926;-35
2023/01/15 13:44:48;;;;;;;;;;;;;;;15.09;nan;99788.63;4998738;28;20432;-35
2023/01/15 13:47:19;;;;;;;;;;;;;;;15.33;nan;99786.50;4998457;28;20275;-35
2023/01/15 13:49:50;;;;;;;;;;;;;;;15.69;nan;99789.22;4998149;28;19922;-35
2023/01/15 13:52:22;;;;;;;;;;;;;;;16.19;nan;99801.84;4998015;28;20017;-35
2023/01/15 13:54:48;;;;;;;;;;;;;;;16.57;nan;99803.03;4998121;28;20407;-35
2023/01/15 13:57:43;;;;;;;;;;;;;;;16.52;nan;99791.53;4995377;28;19926;-35
2023/01/15 14:00:29;;;;;;;;;;;;;;;16.53;nan;99777.72;4996691;28;20453;-35
2023/01/15 14:02:56;;;;;;;;;;;;;;;16.31;nan;99808.25;4992808;28;21470;-35
2023/01/15 14:05:21;;;;;;;;;;;;;;;16.19;nan;99801.84;4997494;28;20460;-36
2023/01/15 14:07:47;;;;;;;;;;;;;;;15.87;nan;99792.06;4998912;28;19940;-35
2023/01/15 14:10:19;;;;;;;;;;;;;;;15.39;nan;99798.75;4997540;28;20350;-35